Time;durP1;ratioP1;P1;durP2;ratioP2;P2;SDS_P1;SDS_P2;PMS_P1;PMS_P2;Temp;Humidity;BMP_temperature;BMP_pressure;BME280_temperature;BME280_humidity;BME280_pressure;Samples;Min_cycle;Max_cycle;Signal;HPM_P1;HPM_P2
2021/05/22 00:01:46;;;;;;;2.70;0.90;;;;;;;8.25;68.47;95755.41;3535668;40;20471;-73
2021/05/22 00:04:14;;;;;;;1.97;0.80;;;;;;;8.21;68.39;95756.59;3541004;40;20457;-76
2021/05/22 00:06:42;;;;;;;5.27;1.03;;;;;;;8.29;68.28;95773.38;3533514;40;20896;-74
2021/05/22 00:09:09;;;;;;;2.30;0.77;;;;;;;8.26;68.22;95773.56;3541977;40;20566;-74
2021/05/22 00:11:37;;;;;;;2.70;1.03;;;;;;;8.27;68.26;95763.97;3532445;40;20860;-73
2021/05/22 00:14:05;;;;;;;6.93;1.03;;;;;;;8.24;68.59;95783.28;3537284;40;20777;-73
2021/05/22 00:16:34;;;;;;;8.07;1.00;;;;;;;8.20;68.31;95781.84;3542233;40;20911;-73
2021/05/22 00:19:01;;;;;;;2.13;0.90;;;;;;;8.30;67.76;95787.22;3534514;40;20945;-74
2021/05/22 00:21:29;;;;;;;4.53;0.70;;;;;;;8.30;67.67;95795.88;3532376;40;20547;-72
2021/05/22 00:23:57;;;;;;;2.50;0.80;;;;;;;8.37;67.41;95785.00;3533966;40;20445;-73
2021/05/22 00:26:24;;;;;;;3.87;0.73;;;;;;;8.27;68.03;95777.00;3533494;40;20519;-73
2021/05/22 00:28:52;;;;;;;5.63;1.00;;;;;;;8.23;67.76;95781.63;3543157;40;20827;-73
2021/05/22 00:31:20;;;;;;;2.97;0.70;;;;;;;8.24;67.84;95782.47;3536651;40;20582;-74
2021/05/22 00:33:49;;;;;;;8.23;0.80;;;;;;;8.28;67.38;95802.16;3523897;40;20782;-74
2021/05/22 00:36:17;;;;;;;3.20;1.40;;;;;;;8.26;67.80;95793.63;3541560;40;20877;-73
2021/05/22 00:38:44;;;;;;;8.73;0.80;;;;;;;8.19;68.01;95805.41;3539576;40;20838;-73
2021/05/22 00:41:11;;;;;;;3.60;0.70;;;;;;;8.23;68.11;95789.47;3536234;40;20924;-73
2021/05/22 00:43:39;;;;;;;7.60;1.10;;;;;;;8.16;68.48;95785.63;3543550;40;20678;-74
2021/05/22 00:46:06;;;;;;;5.07;1.20;;;;;;;8.19;68.31;95779.34;3536866;40;21193;-73
2021/05/22 00:48:35;;;;;;;3.93;0.80;;;;;;;8.12;68.31;95771.97;3534673;40;20454;-73
2021/05/22 00:51:03;;;;;;;5.10;0.80;;;;;;;8.16;68.48;95782.19;3535680;40;20467;-74
2021/05/22 00:53:31;;;;;;;6.43;0.90;;;;;;;8.20;68.31;95801.88;3541960;40;20864;-73
2021/05/22 00:55:58;;;;;;;5.90;1.00;;;;;;;8.21;68.36;95813.97;3540223;40;20463;-73
2021/05/22 00:58:26;;;;;;;5.70;1.40;;;;;;;8.18;68.58;95811.59;3527847;40;20472;-73
2021/05/22 01:00:55;;;;;;;5.87;0.80;;;;;;;8.19;68.71;95819.28;3535733;40;20789;-73
2021/05/22 01:03:26;;;;;;;2.33;1.00;;;;;;;8.15;68.71;95811.81;3532401;40;20546;-72
2021/05/22 01:06:04;;;;;;;3.03;1.00;;;;;;;8.17;68.94;95812.53;3538744;40;20457;-72
2021/05/22 01:08:32;;;;;;;2.87;1.20;;;;;;;8.17;69.26;95822.97;3538589;40;20509;-74
2021/05/22 01:11:03;;;;;;;2.43;1.10;;;;;;;8.08;69.49;95820.06;3538114;40;20462;-72
2021/05/22 01:13:34;;;;;;;11.53;1.00;;;;;;;8.08;69.49;95820.06;3534994;40;20465;-73
2021/05/22 01:16:03;;;;;;;4.23;0.80;;;;;;;8.15;69.44;95823.06;3531784;40;20746;-73
2021/05/22 01:18:31;;;;;;;1.67;0.90;;;;;;;8.18;69.02;95822.03;3536058;40;20460;-73
2021/05/22 01:21:03;;;;;;;5.20;1.10;;;;;;;8.18;69.10;95845.50;3524438;40;20871;-73
2021/05/22 01:23:34;;;;;;;5.73;1.63;;;;;;;8.19;69.33;95855.81;3526395;40;20467;-73
2021/05/22 01:26:03;;;;;;;3.43;1.00;;;;;;;8.05;70.54;95877.66;3536228;40;20466;-74
2021/05/22 01:28:33;;;;;;;4.07;0.97;;;;;;;7.47;74.57;95879.06;3540838;40;20500;-73
2021/05/22 01:31:02;;;;;;;6.47;0.80;;;;;;;7.04;76.59;95880.16;3539729;40;20453;-73
2021/05/22 01:33:30;;;;;;;1.57;0.67;;;;;;;6.73;78.74;95878.72;3534329;40;21051;-73
2021/05/22 01:35:58;;;;;;;5.63;0.70;;;;;;;6.62;79.31;95887.22;3536938;40;21128;-73
2021/05/22 01:38:25;;;;;;;2.10;0.77;;;;;;;6.60;79.71;95880.44;3538340;40;20429;-72
2021/05/22 01:40:53;;;;;;;3.03;0.70;;;;;;;6.47;79.71;95876.03;3537413;40;20551;-73
2021/05/22 01:43:22;;;;;;;1.53;1.00;;;;;;;6.44;80.24;95865.81;3540559;40;20838;-74
2021/05/22 01:45:52;;;;;;;2.40;0.63;;;;;;;6.43;80.83;95869.38;3538373;40;21109;-72
2021/05/22 01:48:25;;;;;;;2.60;0.70;;;;;;;6.33;81.01;95881.25;3540974;40;20834;-71
2021/05/22 01:50:59;;;;;;;4.20;1.20;;;;;;;6.27;81.28;95873.84;3533834;40;20562;-71
2021/05/22 01:53:29;;;;;;;4.47;1.43;;;;;;;6.29;82.42;95882.41;3537516;40;20469;-71
2021/05/22 01:55:57;;;;;;;2.67;1.00;;;;;;;6.24;83.24;95871.47;3537969;40;20468;-71
2021/05/22 01:58:26;;;;;;;2.70;0.60;;;;;;;6.24;82.91;95876.66;3548669;40;20544;-71
2021/05/22 02:00:54;;;;;;;0.90;0.50;;;;;;;6.21;83.94;95884.66;3544313;40;20443;-71
2021/05/22 02:03:30;;;;;;;5.00;1.00;;;;;;;6.10;84.70;95888.75;3545966;40;20847;-71
2021/05/22 02:06:00;;;;;;;1.50;0.70;;;;;;;6.13;85.00;95895.53;3548006;40;20513;-72
2021/05/22 02:08:31;;;;;;;5.23;1.50;;;;;;;6.05;85.81;95893.41;3550971;40;20447;-72
2021/05/22 02:10:59;;;;;;;3.33;0.80;;;;;;;5.96;86.39;95901.78;3547793;40;20530;-74
2021/05/22 02:13:27;;;;;;;2.43;0.60;;;;;;;5.87;85.87;95856.34;3541861;40;20607;-73
2021/05/22 02:15:58;;;;;;;7.10;0.70;;;;;;;5.85;86.23;95847.00;3540730;40;20811;-72
2021/05/22 02:18:27;;;;;;;1.10;0.80;;;;;;;5.85;85.87;95841.78;3547063;40;20540;-71
2021/05/22 02:20:57;;;;;;;1.67;0.60;;;;;;;5.88;85.46;95841.59;3546635;40;20244;-72
2021/05/22 02:23:26;;;;;;;1.43;0.60;;;;;;;5.83;85.46;95831.50;3542862;40;20733;-72
2021/05/22 02:25:56;;;;;;;2.10;0.60;;;;;;;5.92;85.38;95837.91;3547597;40;20456;-72
2021/05/22 02:28:27;;;;;;;1.10;0.60;;;;;;;5.78;85.25;95817.94;3545390;40;20677;-72
2021/05/22 02:30:56;;;;;;;10.20;1.20;;;;;;;5.96;85.66;95835.94;3547725;40;20448;-73
2021/05/22 02:33:24;;;;;;;4.20;0.70;;;;;;;5.93;85.40;95823.97;3547070;40;20828;-73
2021/05/22 02:35:54;;;;;;;2.30;0.80;;;;;;;6.00;85.96;95835.69;3548187;40;20447;-73
2021/05/22 02:38:42;;;;;;;7.23;0.80;;;;;;;5.95;85.06;95842.91;3550294;40;20550;-73
2021/05/22 02:41:10;;;;;;;2.80;0.60;;;;;;;5.92;84.84;95838.72;3544228;40;20463;-74
2021/05/22 02:43:40;;;;;;;1.47;0.60;;;;;;;5.93;86.10;95834.34;3550511;40;20443;-73
2021/05/22 02:46:10;;;;;;;2.37;0.90;;;;;;;5.96;84.78;95834.22;3543300;40;20836;-73
2021/05/22 02:48:38;;;;;;;1.10;0.70;;;;;;;6.04;84.39;95831.94;3551214;40;20452;-73
2021/05/22 02:51:08;;;;;;;2.27;0.90;;;;;;;6.18;83.45;95844.09;3544675;40;20832;-73
2021/05/22 02:53:37;;;;;;;1.37;0.70;;;;;;;6.16;83.34;95860.72;3543145;40;20470;-72
2021/05/22 02:56:06;;;;;;;7.90;0.87;;;;;;;6.17;84.22;95852.78;3550733;40;20467;-74
2021/05/22 02:58:36;;;;;;;2.37;0.70;;;;;;;6.04;85.41;95857.94;3545231;40;20441;-73
2021/05/22 03:01:04;;;;;;;1.95;0.70;;;;;;;5.97;85.58;95851.44;3545365;40;20839;-73
2021/05/22 03:03:34;;;;;;;5.33;0.90;;;;;;;5.97;86.25;95850.63;3547123;40;20231;-73
2021/05/22 03:06:02;;;;;;;3.63;0.90;;;;;;;5.93;86.78;95844.75;3551910;40;20549;-73
2021/05/22 03:08:40;;;;;;;1.73;0.63;;;;;;;5.99;86.72;95865.19;3542182;40;20833;-72
2021/05/22 03:11:08;;;;;;;4.77;1.40;;;;;;;6.11;86.24;95859.22;3542844;40;21126;-73
2021/05/22 03:13:36;;;;;;;4.93;1.07;;;;;;;6.13;86.64;95846.13;3547123;40;20501;-74
2021/05/22 03:16:04;;;;;;;2.30;0.70;;;;;;;6.08;86.66;95841.22;3547804;40;20523;-76
2021/05/22 03:18:31;;;;;;;5.33;0.97;;;;;;;6.15;85.90;95846.88;3546324;40;20236;-73
2021/05/22 03:21:00;;;;;;;3.70;1.30;;;;;;;6.24;84.86;95845.47;3543237;40;20451;-73
2021/05/22 03:23:27;;;;;;;3.20;1.20;;;;;;;6.31;84.28;95836.31;3547261;40;20850;-70
2021/05/22 03:25:55;;;;;;;2.13;1.23;;;;;;;6.34;83.97;95839.56;3543999;40;20733;-72
2021/05/22 03:28:23;;;;;;;2.83;0.87;;;;;;;6.32;84.03;95836.22;3531918;40;21313;-72
2021/05/22 03:30:51;;;;;;;3.13;0.80;;;;;;;6.31;83.78;95836.31;3533450;40;20531;-72
2021/05/22 03:33:19;;;;;;;2.63;0.85;;;;;;;6.44;82.67;95838.97;3531075;40;20582;-73
2021/05/22 03:35:46;;;;;;;3.90;0.90;;;;;;;6.39;83.02;95833.22;3533787;40;20907;-73
2021/05/22 03:38:15;;;;;;;8.70;0.80;;;;;;;6.32;83.30;95840.59;3540603;40;20482;-72
2021/05/22 03:40:42;;;;;;;3.73;0.80;;;;;;;6.27;84.02;95834.84;3527468;40;20466;-72
2021/05/22 03:43:10;;;;;;;1.57;0.87;;;;;;;6.23;84.04;95835.97;3535490;40;20458;-72
2021/05/22 03:45:37;;;;;;;1.60;1.00;;;;;;;6.31;82.48;95838.91;3532686;40;20445;-73
2021/05/22 03:48:05;;;;;;;6.60;0.87;;;;;;;6.30;83.30;95837.28;3536807;40;20542;-74
2021/05/22 03:50:33;;;;;;;3.10;1.20;;;;;;;6.25;83.82;95847.97;3532800;40;20850;-74
2021/05/22 03:53:00;;;;;;;4.63;0.93;;;;;;;6.27;83.82;95848.72;3526802;40;20472;-73
2021/05/22 03:55:29;;;;;;;1.63;0.70;;;;;;;6.40;81.24;95837.50;3537180;40;20856;-72
2021/05/22 03:57:59;;;;;;;1.83;0.60;;;;;;;6.45;80.68;95841.50;3530762;40;20752;-73
2021/05/22 04:00:27;;;;;;;0.80;0.53;;;;;;;6.45;80.71;95849.28;3536488;40;20444;-73
2021/05/22 04:02:54;;;;;;;2.07;0.70;;;;;;;6.43;79.87;95856.38;3539145;40;20460;-73
2021/05/22 04:05:21;;;;;;;2.95;0.93;;;;;;;6.42;80.50;95840.84;3532593;40;20473;-74
2021/05/22 04:07:49;;;;;;;8.30;0.80;;;;;;;6.35;80.34;95850.81;3540280;40;20327;-73
2021/05/22 04:10:17;;;;;;;8.03;1.00;;;;;;;6.32;80.79;95846.63;3536796;40;20293;-74
2021/05/22 04:12:45;;;;;;;2.20;0.80;;;;;;;6.25;81.34;95850.56;3529975;40;20942;-74
2021/05/22 04:15:13;;;;;;;1.63;0.70;;;;;;;6.06;81.85;95835.28;3538893;40;20431;-74
2021/05/22 04:17:41;;;;;;;2.40;0.70;;;;;;;6.17;81.01;95852.78;3540723;40;20783;-75
2021/05/22 04:20:10;;;;;;;7.00;0.90;;;;;;;6.13;81.79;95851.31;3540380;40;20444;-77
2021/05/22 04:22:37;;;;;;;4.93;0.80;;;;;;;6.09;82.08;95855.88;3537299;40;20693;-73
2021/05/22 04:25:06;;;;;;;3.63;0.80;;;;;;;6.19;80.61;95857.91;3537025;40;20319;-73
2021/05/22 04:27:33;;;;;;;2.20;0.70;;;;;;;6.16;81.06;95851.16;3545590;40;20323;-73
2021/05/22 04:30:06;;;;;;;1.87;0.80;;;;;;;6.18;80.89;95853.66;3549000;40;20460;-73
2021/05/22 04:32:34;;;;;;;4.63;1.07;;;;;;;6.20;80.82;95852.63;3545874;40;20486;-73
2021/05/22 04:35:02;;;;;;;1.93;0.50;;;;;;;6.22;81.25;95855.13;3549987;40;20836;-74
2021/05/22 04:37:29;;;;;;;1.33;0.70;;;;;;;6.26;80.92;95851.41;3547040;40;20844;-74
2021/05/22 04:39:57;;;;;;;3.83;0.80;;;;;;;6.35;80.45;95861.22;3546837;40;20832;-74
2021/05/22 04:42:24;;;;;;;1.00;0.60;;;;;;;6.48;79.80;95861.25;3548346;40;20992;-74
2021/05/22 04:44:52;;;;;;;1.37;0.70;;;;;;;6.48;79.73;95856.06;3544853;40;20843;-74
2021/05/22 04:47:20;;;;;;;1.85;0.60;;;;;;;6.51;79.68;95861.06;3538297;40;20549;-74
2021/05/22 04:49:48;;;;;;;3.45;0.80;;;;;;;6.50;79.75;95852.41;3551361;40;20248;-75
2021/05/22 04:52:16;;;;;;;2.13;0.73;;;;;;;6.52;80.18;95852.31;3551107;40;20271;-74
2021/05/22 04:54:44;;;;;;;1.03;0.60;;;;;;;6.50;80.68;95849.81;3550926;40;20570;-73
2021/05/22 04:57:11;;;;;;;2.35;0.65;;;;;;;6.61;80.22;95853.50;3545109;40;20927;-74
2021/05/22 04:59:39;;;;;;;3.90;0.90;;;;;;;6.67;80.18;95856.53;3547864;40;20267;-75
2021/05/22 05:02:07;;;;;;;3.63;0.90;;;;;;;6.74;79.34;95851.75;3544900;40;20441;-73
2021/05/22 05:04:35;;;;;;;2.90;0.90;;;;;;;6.82;80.00;95853.88;3546853;40;20463;-72
2021/05/22 05:07:03;;;;;;;3.40;0.60;;;;;;;6.87;78.87;95868.25;3541281;40;20483;-77
2021/05/22 05:09:33;;;;;;;1.13;0.73;;;;;;;6.97;78.83;95865.88;3543282;40;20463;-74
2021/05/22 05:12:02;;;;;;;2.47;0.90;;;;;;;7.10;78.27;95869.34;3543910;40;20467;-73
2021/05/22 05:14:29;;;;;;;3.00;0.80;;;;;;;7.17;78.08;95861.94;3544803;40;20788;-74
2021/05/22 05:16:57;;;;;;;5.93;0.80;;;;;;;7.21;78.38;95866.00;3543489;40;20759;-73
2021/05/22 05:19:27;;;;;;;3.37;1.10;;;;;;;7.31;77.18;95863.63;3549589;40;20772;-72
2021/05/22 05:21:56;;;;;;;8.23;3.97;;;;;;;7.36;77.13;95871.16;3543006;40;20771;-72
2021/05/22 05:24:23;;;;;;;5.07;0.97;;;;;;;7.41;77.43;95867.28;3550739;40;20452;-72
2021/05/22 05:26:51;;;;;;;7.10;1.03;;;;;;;7.48;76.45;95867.69;3548923;40;20521;-72
2021/05/22 05:29:18;;;;;;;2.53;0.83;;;;;;;7.56;76.71;95888.84;3548388;40;20789;-71
2021/05/22 05:31:46;;;;;;;2.10;1.00;;;;;;;7.61;76.59;95878.13;3551246;40;20475;-74
2021/05/22 05:34:13;;;;;;;4.10;0.90;;;;;;;7.72;76.44;95884.28;3551130;40;20789;-74
2021/05/22 05:36:41;;;;;;;3.23;1.00;;;;;;;7.82;76.26;95881.88;3552552;40;20521;-72
2021/05/22 05:39:10;;;;;;;7.17;1.20;;;;;;;8.05;75.01;95882.03;3546769;40;20433;-73
2021/05/22 05:41:38;;;;;;;4.87;0.97;;;;;;;8.12;74.90;95886.72;3544961;40;20443;-72
2021/05/22 05:44:09;;;;;;;4.10;1.73;;;;;;;8.29;73.95;95880.31;3543720;40;20723;-74
2021/05/22 05:46:36;;;;;;;5.47;1.03;;;;;;;8.37;72.94;95886.75;3538885;40;20460;-74
2021/05/22 05:49:04;;;;;;;2.73;1.03;;;;;;;8.37;73.39;95879.78;3547617;40;20463;-73
2021/05/22 05:51:32;;;;;;;7.23;1.37;;;;;;;8.58;71.88;95873.97;3548741;40;20492;-71
2021/05/22 05:53:59;;;;;;;8.53;1.03;;;;;;;8.60;71.47;95880.75;3545015;40;20853;-73
2021/05/22 05:56:27;;;;;;;1.87;0.90;;;;;;;8.46;71.74;95892.19;3548114;40;20752;-75
2021/05/22 05:58:55;;;;;;;3.03;1.10;;;;;;;8.47;72.88;95877.38;3550954;40;20531;-75
2021/05/22 06:01:22;;;;;;;4.10;0.93;;;;;;;8.87;70.47;95877.91;3546714;40;20828;-76
2021/05/22 06:03:50;;;;;;;4.17;0.80;;;;;;;8.82;71.20;95882.66;3548942;40;20895;-79
2021/05/22 06:06:17;;;;;;;11.67;1.00;;;;;;;8.82;69.80;95873.97;3545444;40;20541;-76
2021/05/22 06:08:45;;;;;;;2.87;0.97;;;;;;;8.99;70.80;95889.22;3550275;40;20435;-77
2021/05/22 06:11:14;;;;;;;2.40;0.70;;;;;;;9.28;70.54;95888.84;3545319;40;20460;-78
2021/05/22 06:13:44;;;;;;;2.93;0.80;;;;;;;9.07;70.18;95897.31;3544895;40;20467;-78
2021/05/22 06:16:22;;;;;;;5.50;1.60;;;;;;;8.84;70.08;95903.41;3549488;40;20488;-76
2021/05/22 06:18:49;;;;;;;2.30;0.80;;;;;;;8.63;72.16;95904.03;3546341;40;20451;-78
2021/05/22 06:21:17;;;;;;;4.10;0.97;;;;;;;8.88;71.82;95903.09;3550985;40;20459;-77
2021/05/22 06:23:44;;;;;;;12.83;0.90;;;;;;;8.85;71.69;95897.25;3548290;40;20436;-77
2021/05/22 06:26:12;;;;;;;2.80;0.90;;;;;;;8.69;71.52;95898.34;3543547;40;20476;-78
2021/05/22 06:28:39;;;;;;;2.50;1.00;;;;;;;8.50;71.58;95866.69;3541873;40;20705;-76
2021/05/22 06:31:07;;;;;;;10.17;1.53;;;;;;;8.74;72.13;95907.63;3540224;40;20460;-75
2021/05/22 06:33:35;;;;;;;9.83;1.00;;;;;;;8.90;71.66;95902.97;3548142;40;20452;-76
2021/05/22 06:36:04;;;;;;;4.17;0.90;;;;;;;8.79;71.00;95908.97;3547993;40;20459;-78
2021/05/22 06:38:31;;;;;;;5.23;1.00;;;;;;;8.63;70.99;95908.41;3546687;40;20565;-77
2021/05/22 06:41:03;;;;;;;4.00;0.70;;;;;;;8.56;71.34;95909.78;3545861;40;20472;-78
2021/05/22 06:43:31;;;;;;;2.40;0.90;;;;;;;8.52;72.84;95909.19;3547835;40;20731;-77
2021/05/22 06:45:59;;;;;;;23.60;1.43;;;;;;;8.67;72.92;95915.91;3543716;40;20468;-78
2021/05/22 06:48:28;;;;;;;4.00;1.37;;;;;;;8.60;73.59;95908.63;3546065;40;20701;-77
2021/05/22 06:50:56;;;;;;;2.00;0.80;;;;;;;8.59;72.71;95899.16;3550999;40;20805;-79
2021/05/22 06:53:23;;;;;;;2.87;0.90;;;;;;;8.96;72.23;95897.31;3552920;40;20467;-78
2021/05/22 06:55:51;;;;;;;2.87;0.73;;;;;;;9.33;69.71;95893.72;3543369;40;20543;-78
2021/05/22 06:58:18;;;;;;;6.63;1.33;;;;;;;9.40;69.30;95879.25;3543851;40;20725;-79
2021/05/22 07:00:49;;;;;;;2.40;0.80;;;;;;;9.42;69.57;95893.88;3548686;40;20460;-79
2021/05/22 07:03:16;;;;;;;2.67;0.83;;;;;;;9.48;68.89;95895.19;3545350;40;20823;-80
2021/05/22 07:05:44;;;;;;;3.53;1.40;;;;;;;9.49;67.76;95886.41;3542322;40;20506;-77
2021/05/22 07:08:12;;;;;;;8.20;1.27;;;;;;;9.65;64.51;95888.69;3546257;40;20686;-78
2021/05/22 07:10:39;;;;;;;1.97;0.90;;;;;;;9.92;65.26;95890.97;3543921;40;20744;-77
2021/05/22 07:13:07;;;;;;;3.43;0.83;;;;;;;9.98;63.71;95881.84;3552371;40;20549;-79
2021/05/22 07:15:34;;;;;;;1.90;1.03;;;;;;;10.22;61.49;95892.16;3548998;40;20489;-76
2021/05/22 07:18:02;;;;;;;3.90;1.13;;;;;;;9.90;63.11;95891.09;3550395;40;20561;-77
2021/05/22 07:20:29;;;;;;;2.87;0.90;;;;;;;9.90;62.94;95891.09;3549020;40;20473;-77
2021/05/22 07:22:57;;;;;;;3.07;1.07;;;;;;;9.90;63.07;95901.56;3545619;40;20453;-79
2021/05/22 07:25:26;;;;;;;2.83;1.00;;;;;;;9.62;63.20;95902.81;3545816;40;20829;-78
2021/05/22 07:27:53;;;;;;;2.57;0.90;;;;;;;9.57;63.29;95910.19;3544528;40;20871;-77
2021/05/22 07:30:22;;;;;;;4.83;0.90;;;;;;;9.59;63.53;95910.91;3543213;40;20465;-77
2021/05/22 07:32:50;;;;;;;2.33;0.90;;;;;;;9.85;62.82;95915.94;3546761;40;20502;-76
2021/05/22 07:35:18;;;;;;;1.87;1.03;;;;;;;10.32;61.47;95915.84;3542399;40;20459;-78
2021/05/22 07:37:45;;;;;;;9.63;0.93;;;;;;;10.63;61.32;95917.69;3539562;40;20809;-80
2021/05/22 07:40:15;;;;;;;2.30;0.80;;;;;;;10.36;59.88;95914.66;3551615;40;20836;-75
2021/05/22 07:42:47;;;;;;;9.40;1.27;;;;;;;10.37;59.13;95916.31;3547389;40;20869;-79
2021/05/22 07:45:16;;;;;;;8.33;1.20;;;;;;;10.78;55.45;95913.03;3542279;40;20669;-77
2021/05/22 07:47:44;;;;;;;1.70;1.00;;;;;;;10.71;56.66;95917.09;3545555;40;20765;-79
2021/05/22 07:50:12;;;;;;;16.40;1.67;;;;;;;10.50;56.98;95911.78;3545414;40;20898;-79
2021/05/22 07:52:40;;;;;;;6.60;1.20;;;;;;;10.79;57.64;95922.53;3541664;40;20458;-79
2021/05/22 07:55:09;;;;;;;3.47;1.23;;;;;;;10.46;56.60;95905.13;3545033;40;20850;-79
2021/05/22 07:57:38;;;;;;;1.97;0.97;;;;;;;10.41;54.40;95915.13;3538308;40;20459;-77
2021/05/22 08:00:07;;;;;;;8.07;2.77;;;;;;;10.74;53.51;95908.16;3542626;40;20455;-77
2021/05/22 08:02:35;;;;;;;1.37;0.93;;;;;;;11.24;53.09;95901.41;3527217;40;20535;-77
2021/05/22 08:05:03;;;;;;;2.90;1.10;;;;;;;11.36;52.19;95915.28;3542895;40;20467;-79
2021/05/22 08:07:31;;;;;;;3.57;1.00;;;;;;;11.47;52.46;95898.69;3544036;40;20499;-79
2021/05/22 08:09:58;;;;;;;5.40;1.53;;;;;;;11.57;51.50;95894.34;3542146;40;20702;-78
2021/05/22 08:12:26;;;;;;;2.80;0.90;;;;;;;11.86;50.75;95898.91;3546619;40;20519;-78
2021/05/22 08:14:55;;;;;;;2.90;1.00;;;;;;;12.06;50.43;95903.31;3550123;40;20798;-77
2021/05/22 08:17:22;;;;;;;7.43;0.97;;;;;;;11.82;48.77;95902.78;3541193;40;20732;-76
2021/05/22 08:19:51;;;;;;;3.57;1.73;;;;;;;11.76;49.03;95904.13;3547958;40;20837;-78
2021/05/22 08:22:21;;;;;;;5.30;0.87;;;;;;;11.92;48.71;95903.66;3551096;40;21123;-77
2021/05/22 08:24:49;;;;;;;2.70;0.70;;;;;;;11.78;47.59;95909.22;3551122;40;20736;-75
2021/05/22 08:27:21;;;;;;;4.13;0.97;;;;;;;11.68;48.00;95891.66;3546227;40;20588;-77
2021/05/22 08:29:55;;;;;;;1.43;0.80;;;;;;;11.99;48.40;95899.53;3549454;40;21126;-78
2021/05/22 08:32:24;;;;;;;1.53;0.67;;;;;;;11.80;47.10;95902.03;3547019;40;20460;-76
2021/05/22 08:34:53;;;;;;;5.63;1.10;;;;;;;11.83;47.89;95891.28;3544028;40;20468;-74
2021/05/22 08:37:21;;;;;;;5.03;0.70;;;;;;;12.09;45.59;95872.53;3547750;40;20552;-77
2021/05/22 08:39:49;;;;;;;1.90;0.90;;;;;;;12.44;45.39;95888.66;3549762;40;20977;-78
2021/05/22 08:42:21;;;;;;;4.40;0.87;;;;;;;13.01;46.38;95890.69;3544368;40;21126;-78
2021/05/22 08:44:50;;;;;;;1.53;0.80;;;;;;;12.58;45.34;95908.47;3534848;40;20979;-78
2021/05/22 08:47:19;;;;;;;1.27;0.70;;;;;;;12.80;44.36;95907.41;3547825;40;20899;-77
2021/05/22 08:49:47;;;;;;;8.80;1.10;;;;;;;12.67;46.50;95893.69;3537294;40;20479;-78
2021/05/22 08:52:23;;;;;;;5.30;0.87;;;;;;;12.93;44.86;95880.84;3536025;40;20915;-76
2021/05/22 08:54:52;;;;;;;3.33;0.93;;;;;;;13.13;43.71;95894.00;3541639;40;20808;-78
2021/05/22 08:57:19;;;;;;;2.83;0.90;;;;;;;12.83;42.62;95898.41;3541631;40;20479;-78
2021/05/22 08:59:48;;;;;;;5.90;1.00;;;;;;;12.57;42.58;95890.22;3547701;40;20451;-77
2021/05/22 09:02:20;;;;;;;3.10;1.47;;;;;;;12.56;42.51;95885.94;3546924;40;20557;-76
2021/05/22 09:05:06;;;;;;;1.53;0.97;;;;;;;12.85;42.06;95884.16;3548595;40;20468;-77
2021/05/22 09:07:34;;;;;;;2.07;0.90;;;;;;;12.94;41.52;95885.16;3547187;40;20693;-78
2021/05/22 09:10:09;;;;;;;3.97;1.00;;;;;;;12.83;43.79;95888.72;3547632;40;20707;-76
2021/05/22 09:12:38;;;;;;;1.30;1.00;;;;;;;13.17;39.13;95887.50;3549570;40;20459;-76
2021/05/22 09:15:09;;;;;;;2.30;0.70;;;;;;;12.79;40.20;95892.59;3547778;40;20474;-77
2021/05/22 09:17:38;;;;;;;3.50;0.70;;;;;;;13.08;40.84;95875.22;3545366;40;20466;-79
2021/05/22 09:20:16;;;;;;;1.80;0.87;;;;;;;13.47;40.78;95872.59;3546113;40;20465;-77
2021/05/22 09:22:43;;;;;;;5.97;1.30;;;;;;;13.74;41.04;95877.94;3541098;40;20524;-75
2021/05/22 09:25:11;;;;;;;6.10;0.77;;;;;;;13.09;41.94;95890.81;3546806;40;20929;-76
2021/05/22 09:27:41;;;;;;;3.33;1.03;;;;;;;13.25;41.76;95891.13;3545799;40;20771;-76
2021/05/22 09:30:12;;;;;;;6.73;0.90;;;;;;;13.67;41.38;95886.53;3541669;40;20453;-76
2021/05/22 09:32:42;;;;;;;2.63;1.03;;;;;;;13.63;41.64;95886.81;3545350;40;20452;-81
2021/05/22 09:35:11;;;;;;;8.50;1.77;;;;;;;13.54;42.95;95882.38;3540791;40;20464;-76
2021/05/22 09:37:45;;;;;;;14.87;2.00;;;;;;;13.60;42.24;95879.22;3549102;40;20441;-77
2021/05/22 09:40:15;;;;;;;6.50;1.00;;;;;;;13.35;40.76;95888.50;3547652;40;20707;-80
2021/05/22 09:42:43;;;;;;;5.77;1.10;;;;;;;13.59;41.29;95881.97;3550169;40;20464;-74
2021/05/22 09:45:25;;;;;;;6.23;0.80;;;;;;;13.46;39.86;95900.66;3548135;40;20479;-76
2021/05/22 09:47:55;;;;;;;3.33;1.27;;;;;;;13.20;41.68;95876.72;3544568;40;20468;-78
2021/05/22 09:50:34;;;;;;;2.17;1.00;;;;;;;13.85;41.06;95885.63;3547108;40;21255;-78
2021/05/22 09:53:18;;;;;;;6.63;0.90;;;;;;;14.22;39.60;95886.63;3544257;40;20462;-76
2021/05/22 09:56:10;;;;;;;5.07;1.00;;;;;;;14.17;39.39;95884.44;3542283;40;20709;-77
2021/05/22 09:58:39;;;;;;;4.03;1.97;;;;;;;13.73;41.25;95886.78;3537228;40;20474;-78
2021/05/22 10:01:07;;;;;;;4.60;1.27;;;;;;;14.31;37.58;95893.66;3536382;40;20498;-78
2021/05/22 10:03:35;;;;;;;2.60;0.90;;;;;;;14.21;37.73;95869.16;3543275;40;20558;-77
2021/05/22 10:06:03;;;;;;;2.50;0.97;;;;;;;13.97;38.42;95881.03;3538330;40;20474;-77
2021/05/22 10:08:30;;;;;;;2.80;0.87;;;;;;;14.16;36.82;95893.28;3545403;40;21106;-76
2021/05/22 10:10:58;;;;;;;2.33;1.00;;;;;;;14.15;37.58;95891.66;3542920;40;20842;-76
2021/05/22 10:13:27;;;;;;;6.00;0.80;;;;;;;14.20;37.22;95894.66;3545060;40;20490;-75
2021/05/22 10:15:56;;;;;;;2.13;0.60;;;;;;;13.53;37.93;95901.78;3543314;40;20688;-78
2021/05/22 10:18:25;;;;;;;1.40;0.60;;;;;;;13.27;36.03;95896.25;3541846;40;20452;-78
2021/05/22 10:20:55;;;;;;;3.83;0.97;;;;;;;14.06;37.20;95892.50;3550063;40;20454;-77
2021/05/22 10:23:23;;;;;;;2.50;0.90;;;;;;;14.00;36.07;95899.19;3545960;40;20858;-76
2021/05/22 10:25:52;;;;;;;1.97;0.83;;;;;;;14.06;35.61;95884.63;3539725;40;20470;-78
2021/05/22 10:28:20;;;;;;;3.30;0.90;;;;;;;14.61;35.12;95897.00;3544779;40;20504;-77
2021/05/22 10:30:48;;;;;;;1.80;0.80;;;;;;;13.91;36.04;95907.09;3545647;40;20897;-77
2021/05/22 10:33:17;;;;;;;5.53;0.90;;;;;;;14.09;34.43;95892.19;3544258;40;21063;-79
2021/05/22 10:35:48;;;;;;;9.87;1.07;;;;;;;15.06;35.45;95880.34;3543023;40;20525;-77
2021/05/22 10:38:40;;;;;;;1.77;0.70;;;;;;;14.59;35.21;95891.06;3539025;40;20506;-77
2021/05/22 10:41:11;;;;;;;2.50;0.63;;;;;;;14.22;33.74;95891.88;3545565;40;20556;-77
2021/05/22 10:43:41;;;;;;;1.73;0.70;;;;;;;14.32;34.62;95913.75;3547071;40;20532;-77
2021/05/22 10:46:08;;;;;;;5.97;1.37;;;;;;;14.75;35.03;95890.41;3546809;40;20832;-75
2021/05/22 10:48:59;;;;;;;2.03;0.83;;;;;;;14.84;33.73;95892.16;3546324;40;20736;-76
2021/05/22 10:51:33;;;;;;;1.50;0.57;;;;;;;14.98;32.53;95906.63;3547383;40;20795;-80
2021/05/22 10:54:04;;;;;;;1.10;0.60;;;;;;;14.90;31.82;95898.63;3545824;40;20537;-77
2021/05/22 10:56:31;;;;;;;0.97;0.60;;;;;;;14.72;32.88;95898.59;3537144;40;20520;-78
2021/05/22 10:59:15;;;;;;;4.70;0.80;;;;;;;15.35;31.45;95898.56;3551145;40;20499;-78
2021/05/22 11:01:47;;;;;;;3.53;1.27;;;;;;;15.50;31.84;95895.38;3532798;40;21153;-76
2021/05/22 11:04:30;;;;;;;1.93;0.80;;;;;;;15.34;32.45;95894.25;3536497;40;20906;-77
2021/05/22 11:07:00;;;;;;;2.63;0.70;;;;;;;15.30;32.89;95897.34;3545254;40;20861;-76
2021/05/22 11:09:47;;;;;;;5.40;0.80;;;;;;;15.82;32.75;95902.75;3546924;40;20450;-75
2021/05/22 11:12:46;;;;;;;1.90;0.60;;;;;;;15.27;32.35;95881.81;3544171;40;20472;-77
2021/05/22 11:15:38;;;;;;;1.00;0.50;;;;;;;14.95;32.91;95914.81;3546548;40;20907;-75
2021/05/22 11:18:06;;;;;;;1.77;0.70;;;;;;;14.12;34.75;95906.91;3545825;40;20481;-76
2021/05/22 11:20:35;;;;;;;2.30;0.70;;;;;;;15.30;33.85;95914.00;3547852;40;20877;-75
2021/05/22 11:23:03;;;;;;;2.60;0.90;;;;;;;15.59;32.74;95929.59;3545139;40;20855;-75
2021/05/22 11:25:50;;;;;;;1.43;0.70;;;;;;;15.37;33.06;95928.25;3547496;40;20452;-76
2021/05/22 11:28:21;;;;;;;2.17;0.63;;;;;;;15.59;32.93;95908.47;3545067;40;20993;-76
2021/05/22 11:30:54;;;;;;;2.40;1.07;;;;;;;16.08;32.45;95930.97;3548086;40;20521;-76
2021/05/22 11:33:33;;;;;;;2.50;0.80;;;;;;;15.76;33.17;95906.00;3550010;40;20858;-77
2021/05/22 11:36:14;;;;;;;1.17;0.50;;;;;;;15.01;34.38;95915.06;3538776;40;20451;-76
2021/05/22 11:38:43;;;;;;;2.83;0.70;;;;;;;14.95;34.87;95902.47;3544919;40;20440;-75
2021/05/22 11:41:28;;;;;;;1.83;0.93;;;;;;;15.76;35.14;95911.28;3543724;40;20852;-76
2021/05/22 11:44:06;;;;;;;5.07;0.70;;;;;;;16.15;33.60;95897.63;3544575;40;20939;-76
2021/05/22 11:46:34;;;;;;;1.70;0.70;;;;;;;16.99;32.70;95918.00;3547250;40;20549;-75
2021/05/22 11:49:02;;;;;;;2.87;0.77;;;;;;;16.94;30.62;95919.47;3547636;40;20460;-77
2021/05/22 11:51:33;;;;;;;1.30;0.60;;;;;;;16.46;31.38;95912.97;3552247;40;20483;-75